• Join FlightAware (Why Join?)
  • Login
  • US Flag 
03:13AM EST


 

Airport Tracker/Info


-or-


 

Live Flight TrackerFlight Track Log ✈ N9906L ✈ 02-May-2013 ✈ KRBW - KMAO

Flight Track Log - Related Links

Times and Time Zones

All times are in EDT time to prevent confusion due to time zone crossing. See the N9906L flight status page for this flight to view local times or setup timezone preferences in your user account.

Time Position Orientation Groundspeed Altitude Reporting Facility
EDT Latitude Longitude Course Direction KTS MPH feet Rate Location/Type
08:38PM 33.0429 -80.5071 40° Northeast  Level FlightAware Approximate
08:39PM 33.0637 -80.4856 41° Northeast  Level FlightAware Approximate
08:40PM 33.0844 -80.4640 41° Northeast  Level FlightAware Approximate
08:41PM 33.1050 -80.4424 41° Northeast  Level FlightAware Approximate
08:42PM 33.1256 -80.4207 41° Northeast  Level FlightAware Approximate
08:43PM 33.1463 -80.3990 41° Northeast  Level FlightAware Approximate
08:44PM 33.1669 -80.3774 41° Northeast  Level FlightAware Approximate
08:45PM 33.1875 -80.3557 41° Northeast  Level FlightAware Approximate
08:46PM 33.2081 -80.3340 41° Northeast  Level FlightAware Approximate
08:47PM 33.2287 -80.3123 41° Northeast  Level FlightAware Approximate
08:48PM 33.2493 -80.2906 41° Northeast  Level FlightAware Approximate
08:49PM 33.2699 -80.2689 41° Northeast  Level FlightAware Approximate
08:50PM 33.2905 -80.2471 41° Northeast  Level FlightAware Approximate
08:51PM 33.3111 -80.2254 41° Northeast  Level FlightAware Approximate
08:52PM 33.3317 -80.2036 41° Northeast  Level FlightAware Approximate
08:53PM 33.3523 -80.1818 41° Northeast  Level FlightAware Approximate
08:54PM 33.3729 -80.1600 42° Northeast  Level FlightAware Approximate
08:55PM 33.3934 -80.1382 42° Northeast  Level FlightAware Approximate
08:56PM 33.4140 -80.1164 42° Northeast  Level FlightAware Approximate
08:57PM 33.4345 -80.0945 42° Northeast  Level FlightAware Approximate
08:58PM 33.4551 -80.0726 42° Northeast  Level FlightAware Approximate
08:59PM 33.4756 -80.0508 42° Northeast  Level FlightAware Approximate
09:00PM 33.4961 -80.0289 42° Northeast  Level FlightAware Approximate
09:01PM 33.5166 -80.0070 42° Northeast  Level FlightAware Approximate
09:02PM 33.5372 -79.9850 42° Northeast  Level FlightAware Approximate
09:03PM 33.5577 -79.9631 42° Northeast  Level FlightAware Approximate
09:04PM 33.5782 -79.9412 42° Northeast  Level FlightAware Approximate
09:05PM 33.5987 -79.9193 42° Northeast  Level FlightAware Approximate
09:06PM 33.6193 -79.8974 40° Northeast  Level FlightAware Approximate
09:07PM 33.6404 -79.8763 40° Northeast  Level FlightAware Approximate
09:08PM 33.6615 -79.8552 40° Northeast  Level FlightAware Approximate
09:09PM 33.6826 -79.8342 40° Northeast  Level FlightAware Approximate
09:10PM 33.7038 -79.8130 40° Northeast  Level FlightAware Approximate
09:11PM 33.7249 -79.7919 40° Northeast  Level FlightAware Approximate
09:12PM 33.7460 -79.7708 40° Northeast  Level FlightAware Approximate
09:13PM 33.7671 -79.7497 40° Northeast  Level FlightAware Approximate
09:14PM 33.7882 -79.7285 40° Northeast  Level FlightAware Approximate
09:15PM 33.8093 -79.7074 40° Northeast  Level FlightAware Approximate
09:16PM 33.8300 -79.6856 42° Northeast  Level FlightAware Approximate
09:17PM 33.8504 -79.6635 42° Northeast  Level FlightAware Approximate
09:18PM 33.8709 -79.6414 42° Northeast  Level FlightAware Approximate
09:19PM 33.8913 -79.6193 42° Northeast  Level FlightAware Approximate
09:20PM 33.9118 -79.5972 42° Northeast  Level FlightAware Approximate
09:21PM 33.9322 -79.5751 42° Northeast  Level FlightAware Approximate
09:22PM 33.9526 -79.5529 42° Northeast  Level FlightAware Approximate
09:23PM 33.9730 -79.5307 42° Northeast  Level FlightAware Approximate
09:24PM 33.9934 -79.5086 42° Northeast  Level FlightAware Approximate
09:25PM 34.0139 -79.4864 42° Northeast  Level FlightAware Approximate
09:26PM 34.0349 -79.4651 40° Northeast  Level FlightAware Approximate
09:27PM 34.0561 -79.4440 40° Northeast  Level FlightAware Approximate
09:28PM 34.0772 -79.4228 40° Northeast  Level FlightAware Approximate
09:29PM 34.0984 -79.4017 40° Northeast  Level FlightAware Approximate
09:30PM 34.1195 -79.3805 40° Northeast  Level FlightAware Approximate
09:31PM 34.1407 -79.3593 40° Northeast  Level FlightAware Approximate
09:32PM 34.1618 -79.3382 40° Northeast  Level FlightAware Approximate
09:33PM 34.1667 -79.3333 40° Northeast  Level FlightAware Approximate